ヘネラル・アベラルド・L・ロドリゲス国際空港の過去48時間の天気

ヘネラル・アベラルド・L・ロドリゲス国際空港 (Tijuana International Airport )

現在時刻: 9/25 14:40 PDT (9/25 21:40 UTC) 以下の時間は現地時間です。

過去48時間のMETAR気象情報
時間 風向 風速(m/s) 視程 気温(℃) 湿度(%) 気圧(hPa) 天気現象
25 13:40 西北西 7 10km以上 29 40 1016
25 12:40 西 6 10km以上 29 48 1016
MMTJ 252040Z 30014KT 10SM SKC 29/14 A2997 RMK SLP160 57015 968 HZY CU E TCU NE
MMTJ 251940Z 28011KT 8SM SKC 29/17 A2999 RMK HZY CU E TCU NE